Terminal Aerodrome Forecast
Issued by NWS Wilmington, OH

Current Version | Previous Version | Text Only | Print | Product List | Glossary On
Versions: 1 2 3 4 5 6 7 8 9 10 11 12 13 14 15 16 17 18
000
FTUS41 KILN 271133
TAFILN
TAF
KILN 271133Z 2712/2812 20004KT P6SM SCT040 OVC120
      TEMPO 2714/2716 5SM -TSRA BR BKN040CB
     FM271600 23007KT P6SM SCT035 OVC060
     FM272200 23009KT 5SM -SHRA BR VCTS OVC035CB
     FM280200 22006KT P6SM -SHRA OVC035
     FM280600 VRB03KT P6SM OVC011
     FM280900 35004KT P6SM OVC006=

USA.gov is the U.S. government's official web portal to all federal, state and local government web resources and services.